Time;durP1;ratioP1;P1;durP2;ratioP2;P2;SDS_P1;SDS_P2;PMS_P1;PMS_P2;Temp;Humidity;BMP_temperature;BMP_pressure;BME280_temperature;BME280_humidity;BME280_pressure;Samples;Min_cycle;Max_cycle;Signal;HPM_P1;HPM_P2
2021/05/28 00:00:42;;;;;;;8.05;5.27;;;;;;;;;;363845;147;859878;-66
2021/05/28 00:01:44;;;;;;;6.16;5.27;;;;;;;;;;363171;146;857552;-64
2021/05/28 00:02:46;;;;;;;8.86;5.02;;;;;;;;;;366201;147;858740;-64
2021/05/28 00:03:47;;;;;;;6.09;4.74;;;;;;;;;;363081;146;865271;-63
2021/05/28 00:04:49;;;;;;;8.39;5.19;;;;;;;;;;366122;146;857338;-63
2021/05/28 00:05:50;;;;;;;5.56;5.04;;;;;;;;;;362935;147;857248;-65
2021/05/28 00:06:52;;;;;;;6.08;5.49;;;;;;;;;;361560;146;857293;-66
2021/05/28 00:07:55;;;;;;;7.66;5.36;;;;;;;;;;361066;147;864783;-65
2021/05/28 00:08:56;;;;;;;6.09;5.00;;;;;;;;;;360600;147;857858;-63
2021/05/28 00:09:58;;;;;;;5.46;4.96;;;;;;;;;;365280;146;864858;-63
2021/05/28 00:11:00;;;;;;;7.15;5.21;;;;;;;;;;365925;147;857258;-64
2021/05/28 00:12:02;;;;;;;6.71;4.92;;;;;;;;;;362191;146;857516;-64
2021/05/28 00:13:04;;;;;;;8.12;4.96;;;;;;;;;;364989;147;864948;-64
2021/05/28 00:14:05;;;;;;;7.09;4.77;;;;;;;;;;361241;146;865860;-64
2021/05/28 00:15:08;;;;;;;6.98;5.21;;;;;;;;;;364225;147;859063;-63
2021/05/28 00:16:10;;;;;;;6.24;5.08;;;;;;;;;;362261;147;865744;-63
2021/05/28 00:17:12;;;;;;;7.89;4.86;;;;;;;;;;361508;146;857536;-63
2021/05/28 00:18:14;;;;;;;6.50;5.34;;;;;;;;;;358333;147;864884;-63
2021/05/28 00:19:15;;;;;;;7.59;5.46;;;;;;;;;;362706;147;857305;-64
2021/05/28 00:20:18;;;;;;;6.58;5.33;;;;;;;;;;362549;146;857255;-64
2021/05/28 00:21:20;;;;;;;6.71;5.06;;;;;;;;;;365103;147;857312;-64
2021/05/28 00:22:21;;;;;;;8.97;5.13;;;;;;;;;;365315;147;857302;-64
2021/05/28 00:23:23;;;;;;;5.81;4.88;;;;;;;;;;363387;146;857395;-64
2021/05/28 00:24:25;;;;;;;5.69;5.15;;;;;;;;;;366106;147;857456;-64
2021/05/28 00:25:28;;;;;;;6.42;4.79;;;;;;;;;;364428;146;857428;-64
2021/05/28 00:26:30;;;;;;;6.63;5.46;;;;;;;;;;362615;147;857436;-64
2021/05/28 00:27:32;;;;;;;5.89;5.26;;;;;;;;;;360465;147;859174;-64
2021/05/28 00:28:34;;;;;;;5.91;5.04;;;;;;;;;;365832;146;865475;-65
2021/05/28 00:29:35;;;;;;;5.82;5.04;;;;;;;;;;364062;147;864666;-64
2021/05/28 00:30:38;;;;;;;6.99;4.74;;;;;;;;;;364091;147;857413;-65
2021/05/28 00:31:40;;;;;;;5.91;5.33;;;;;;;;;;364968;146;865677;-65
2021/05/28 00:32:41;;;;;;;5.70;4.66;;;;;;;;;;364510;147;857393;-64
2021/05/28 00:33:43;;;;;;;6.62;4.88;;;;;;;;;;359049;147;857276;-64
2021/05/28 00:34:44;;;;;;;6.37;5.06;;;;;;;;;;356495;151;857265;-64
2021/05/28 00:35:46;;;;;;;7.32;5.07;;;;;;;;;;358180;149;857309;-64
2021/05/28 00:36:48;;;;;;;6.33;5.57;;;;;;;;;;358657;149;857865;-64
2021/05/28 00:37:49;;;;;;;6.46;5.09;;;;;;;;;;358887;150;866657;-64
2021/05/28 00:38:51;;;;;;;7.57;5.14;;;;;;;;;;358144;149;866759;-64
2021/05/28 00:39:52;;;;;;;5.16;4.73;;;;;;;;;;358264;150;857858;-64
2021/05/28 00:40:54;;;;;;;6.99;5.02;;;;;;;;;;355768;150;867106;-63
2021/05/28 00:41:56;;;;;;;8.98;5.17;;;;;;;;;;355197;149;867125;-63
2021/05/28 00:42:57;;;;;;;6.29;5.12;;;;;;;;;;356309;150;858925;-63
2021/05/28 00:43:59;;;;;;;6.11;5.14;;;;;;;;;;355421;150;865819;-63
2021/05/28 00:45:01;;;;;;;6.63;5.03;;;;;;;;;;357155;149;860015;-63
2021/05/28 00:46:03;;;;;;;6.07;4.63;;;;;;;;;;359452;150;859015;-63
2021/05/28 00:47:05;;;;;;;5.26;4.65;;;;;;;;;;358154;149;857556;-63
2021/05/28 00:48:08;;;;;;;7.06;5.29;;;;;;;;;;356551;151;858345;-64
2021/05/28 00:49:10;;;;;;;7.34;5.46;;;;;;;;;;358197;150;857370;-64
2021/05/28 00:50:12;;;;;;;6.79;5.45;;;;;;;;;;358426;149;864716;-64
2021/05/28 00:51:14;;;;;;;6.76;5.44;;;;;;;;;;358491;149;859927;-65
2021/05/28 00:52:16;;;;;;;6.14;5.39;;;;;;;;;;356373;149;859035;-64
2021/05/28 00:53:17;;;;;;;5.80;5.12;;;;;;;;;;357986;150;857818;-64
2021/05/28 00:54:19;;;;;;;7.91;5.95;;;;;;;;;;357716;149;857282;-64
2021/05/28 00:55:20;;;;;;;6.06;5.46;;;;;;;;;;357311;149;857255;-64
2021/05/28 00:56:22;;;;;;;6.18;5.51;;;;;;;;;;358821;149;865027;-65
2021/05/28 00:57:26;;;;;;;7.16;5.44;;;;;;;;;;356270;150;857366;-65
2021/05/28 00:58:28;;;;;;;6.47;5.54;;;;;;;;;;359706;149;857270;-65
2021/05/28 00:59:30;;;;;;;6.40;5.68;;;;;;;;;;357705;149;866563;-64
2021/05/28 01:00:32;;;;;;;6.47;5.69;;;;;;;;;;354925;150;859690;-64
2021/05/28 01:01:33;;;;;;;8.77;5.92;;;;;;;;;;357135;149;860499;-64
2021/05/28 01:02:35;;;;;;;6.80;6.09;;;;;;;;;;357403;150;865482;-64
2021/05/28 01:03:37;;;;;;;6.61;5.90;;;;;;;;;;358466;149;857833;-64
2021/05/28 01:04:38;;;;;;;5.88;5.36;;;;;;;;;;359604;150;857425;-64
2021/05/28 01:05:40;;;;;;;9.01;5.82;;;;;;;;;;355748;149;857300;-65
2021/05/28 01:06:42;;;;;;;6.86;5.00;;;;;;;;;;358721;149;857354;-65
2021/05/28 01:07:43;;;;;;;5.96;5.30;;;;;;;;;;359744;150;857270;-64
2021/05/28 01:08:45;;;;;;;6.15;5.46;;;;;;;;;;357206;150;867206;-64
2021/05/28 01:09:47;;;;;;;8.03;5.79;;;;;;;;;;355350;149;859035;-64
2021/05/28 01:10:49;;;;;;;6.55;5.17;;;;;;;;;;356591;150;857513;-64
2021/05/28 01:11:51;;;;;;;9.36;6.24;;;;;;;;;;357942;149;867026;-65
2021/05/28 01:12:53;;;;;;;6.34;5.66;;;;;;;;;;357584;150;860059;-64
2021/05/28 01:13:55;;;;;;;6.69;5.74;;;;;;;;;;350954;150;859506;-64
2021/05/28 01:14:57;;;;;;;9.59;6.14;;;;;;;;;;355526;151;857443;-64
2021/05/28 01:15:58;;;;;;;7.43;4.83;;;;;;;;;;356890;150;858131;-64
2021/05/28 01:17:00;;;;;;;6.62;6.00;;;;;;;;;;356420;150;858930;-65
2021/05/28 01:18:02;;;;;;;6.46;5.49;;;;;;;;;;354371;150;867730;-64
2021/05/28 01:19:04;;;;;;;8.41;6.06;;;;;;;;;;355720;150;859994;-64
2021/05/28 01:20:06;;;;;;;9.15;5.39;;;;;;;;;;356935;150;859603;-64
2021/05/28 01:21:08;;;;;;;9.80;5.57;;;;;;;;;;355377;150;859058;-64
2021/05/28 01:22:10;;;;;;;9.42;6.10;;;;;;;;;;356482;149;858950;-65
2021/05/28 01:23:11;;;;;;;11.83;6.38;;;;;;;;;;359103;150;858069;-64
2021/05/28 01:24:13;;;;;;;7.68;6.09;;;;;;;;;;359602;150;865084;-64
2021/05/28 01:25:15;;;;;;;6.64;6.01;;;;;;;;;;358895;149;857749;-64
2021/05/28 01:26:18;;;;;;;6.01;5.44;;;;;;;;;;358271;149;857234;-65
2021/05/28 01:27:20;;;;;;;6.33;5.71;;;;;;;;;;356048;150;858741;-65
2021/05/28 01:28:22;;;;;;;10.07;5.97;;;;;;;;;;355536;149;860257;-65
2021/05/28 01:29:23;;;;;;;6.47;5.79;;;;;;;;;;356311;150;857399;-65
2021/05/28 01:30:26;;;;;;;8.13;6.15;;;;;;;;;;357084;150;866635;-65
2021/05/28 01:31:27;;;;;;;7.01;5.69;;;;;;;;;;359628;150;857258;-65
2021/05/28 01:32:29;;;;;;;7.29;5.97;;;;;;;;;;357385;150;859116;-65
2021/05/28 01:33:31;;;;;;;6.46;5.87;;;;;;;;;;356200;149;859157;-65
2021/05/28 01:34:32;;;;;;;6.16;5.54;;;;;;;;;;360189;148;858241;-65
2021/05/28 01:35:34;;;;;;;8.21;6.30;;;;;;;;;;363520;147;865639;-65
2021/05/28 01:36:36;;;;;;;7.37;5.85;;;;;;;;;;359764;146;858547;-65
2021/05/28 01:37:37;;;;;;;7.21;6.16;;;;;;;;;;364418;147;857257;-65
2021/05/28 01:38:39;;;;;;;7.60;6.06;;;;;;;;;;361663;147;857324;-64
2021/05/28 01:39:47;;;;;;;6.69;5.94;;;;;;;;;;362913;147;857340;-64
2021/05/28 01:40:49;;;;;;;7.37;5.97;;;;;;;;;;365146;147;858956;-64
2021/05/28 01:41:51;;;;;;;7.17;6.08;;;;;;;;;;365521;146;857603;-65
2021/05/28 01:42:53;;;;;;;8.42;6.31;;;;;;;;;;365737;147;865397;-65
2021/05/28 01:43:54;;;;;;;6.47;5.86;;;;;;;;;;361512;146;857433;-65
2021/05/28 01:44:58;;;;;;;6.40;5.80;;;;;;;;;;366293;147;857220;-65
2021/05/28 01:45:59;;;;;;;7.42;5.89;;;;;;;;;;364561;147;865227;-65
2021/05/28 01:47:01;;;;;;;6.75;5.72;;;;;;;;;;363907;146;857461;-65
2021/05/28 01:48:03;;;;;;;8.12;5.98;;;;;;;;;;363829;147;865870;-64
2021/05/28 01:49:05;;;;;;;6.99;6.31;;;;;;;;;;362345;147;858800;-65
2021/05/28 01:50:08;;;;;;;8.35;5.56;;;;;;;;;;361077;147;858457;-65
2021/05/28 01:51:10;;;;;;;6.91;5.76;;;;;;;;;;361968;147;860480;-65
2021/05/28 01:52:13;;;;;;;6.81;6.06;;;;;;;;;;363487;146;857697;-65
2021/05/28 01:53:18;;;;;;;6.81;6.07;;;;;;;;;;364996;147;864793;-65
2021/05/28 01:54:22;;;;;;;8.92;6.16;;;;;;;;;;362042;147;866469;-65
2021/05/28 01:55:24;;;;;;;6.84;6.14;;;;;;;;;;362193;147;857183;-65
2021/05/28 01:56:26;;;;;;;7.15;5.83;;;;;;;;;;360808;147;857231;-65
2021/05/28 01:57:28;;;;;;;7.76;6.44;;;;;;;;;;361541;147;857304;-62
2021/05/28 01:58:30;;;;;;;6.19;5.34;;;;;;;;;;362297;147;859117;-64
2021/05/28 01:59:31;;;;;;;6.58;5.92;;;;;;;;;;362336;147;865594;-64
2021/05/28 02:00:33;;;;;;;6.45;5.83;;;;;;;;;;365565;147;857306;-64
2021/05/28 02:01:35;;;;;;;6.53;5.92;;;;;;;;;;364694;147;857735;-64
2021/05/28 02:02:36;;;;;;;7.62;5.69;;;;;;;;;;360964;147;865560;-65
2021/05/28 02:03:38;;;;;;;6.92;6.09;;;;;;;;;;366445;146;857290;-64
2021/05/28 02:04:40;;;;;;;7.14;6.04;;;;;;;;;;363672;147;857305;-63
2021/05/28 02:05:42;;;;;;;6.61;5.95;;;;;;;;;;363231;146;857316;-63
2021/05/28 02:06:44;;;;;;;8.27;5.97;;;;;;;;;;355399;150;857508;-64
2021/05/28 02:07:45;;;;;;;7.76;6.24;;;;;;;;;;355182;150;857215;-63
2021/05/28 02:08:47;;;;;;;9.70;7.36;;;;;;;;;;364743;147;857279;-65
2021/05/28 02:09:48;;;;;;;8.64;7.00;;;;;;;;;;363912;147;857408;-65
2021/05/28 02:10:50;;;;;;;8.06;6.23;;;;;;;;;;363777;147;857252;-65
2021/05/28 02:11:52;;;;;;;7.47;6.38;;;;;;;;;;363494;147;866713;-64
2021/05/28 02:12:53;;;;;;;7.41;6.64;;;;;;;;;;361070;147;866580;-64
2021/05/28 02:13:55;;;;;;;7.07;6.11;;;;;;;;;;363311;146;859013;-65
2021/05/28 02:14:57;;;;;;;7.76;6.35;;;;;;;;;;366616;147;857911;-64
2021/05/28 02:15:59;;;;;;;8.06;6.09;;;;;;;;;;365223;147;865741;-63
2021/05/28 02:17:01;;;;;;;7.56;6.09;;;;;;;;;;361923;146;857338;-64
2021/05/28 02:18:02;;;;;;;8.08;6.30;;;;;;;;;;354626;150;865557;-64
2021/05/28 02:19:04;;;;;;;7.44;6.24;;;;;;;;;;352835;150;860797;-64
2021/05/28 02:20:07;;;;;;;7.36;6.17;;;;;;;;;;359704;148;865079;-65
2021/05/28 02:21:08;;;;;;;11.16;6.23;;;;;;;;;;361561;143;855920;-63
2021/05/28 02:22:11;;;;;;;6.65;5.99;;;;;;;;;;354959;151;857868;-64
2021/05/28 02:23:12;;;;;;;8.81;6.73;;;;;;;;;;356697;151;859604;-63
2021/05/28 02:24:15;;;;;;;12.72;7.29;;;;;;;;;;353090;150;866740;-64
2021/05/28 02:25:16;;;;;;;18.61;7.15;;;;;;;;;;355244;150;866016;-63
2021/05/28 02:26:19;;;;;;;14.47;7.21;;;;;;;;;;355883;150;859431;-64
2021/05/28 02:27:21;;;;;;;11.49;6.61;;;;;;;;;;354692;150;859736;-63
2021/05/28 02:28:22;;;;;;;9.71;6.39;;;;;;;;;;355420;148;857366;-64
2021/05/28 02:29:24;;;;;;;10.68;6.70;;;;;;;;;;355322;149;857294;-64
2021/05/28 02:30:26;;;;;;;7.54;6.71;;;;;;;;;;355384;148;866907;-65
2021/05/28 02:31:27;;;;;;;7.09;6.31;;;;;;;;;;355479;148;857572;-65
2021/05/28 02:32:29;;;;;;;7.24;6.09;;;;;;;;;;351987;149;864926;-65
2021/05/28 02:33:31;;;;;;;8.11;6.49;;;;;;;;;;352797;150;866743;-65
2021/05/28 02:34:32;;;;;;;7.71;6.50;;;;;;;;;;355893;150;858008;-65
2021/05/28 02:35:34;;;;;;;6.88;6.17;;;;;;;;;;354644;148;865991;-65
2021/05/28 02:36:36;;;;;;;8.57;6.14;;;;;;;;;;354458;150;858222;-64
2021/05/28 02:37:38;;;;;;;8.55;6.01;;;;;;;;;;354893;150;858211;-64
2021/05/28 02:38:39;;;;;;;9.78;6.76;;;;;;;;;;353606;150;858418;-64
2021/05/28 02:39:41;;;;;;;17.54;6.54;;;;;;;;;;353009;148;857298;-65
2021/05/28 02:40:44;;;;;;;9.06;6.94;;;;;;;;;;352339;149;866847;-64
2021/05/28 02:41:45;;;;;;;15.16;6.91;;;;;;;;;;354981;148;857438;-64
2021/05/28 02:42:47;;;;;;;31.61;7.04;;;;;;;;;;353158;151;865157;-64
2021/05/28 02:43:48;;;;;;;11.33;6.70;;;;;;;;;;354000;150;866502;-64
2021/05/28 02:44:52;;;;;;;8.87;6.36;;;;;;;;;;351435;150;860279;-64
2021/05/28 02:45:54;;;;;;;17.73;6.71;;;;;;;;;;353756;151;866950;-64
2021/05/28 02:46:55;;;;;;;9.27;6.53;;;;;;;;;;354271;150;858706;-64
2021/05/28 02:47:58;;;;;;;34.61;7.42;;;;;;;;;;352703;150;861217;-64
2021/05/28 02:49:01;;;;;;;14.18;7.04;;;;;;;;;;352484;150;860308;-64
2021/05/28 02:50:03;;;;;;;45.67;7.17;;;;;;;;;;352438;151;857490;-64
2021/05/28 02:51:05;;;;;;;13.05;6.21;;;;;;;;;;354907;150;865250;-64
2021/05/28 02:52:06;;;;;;;8.75;6.20;;;;;;;;;;354485;150;857635;-63
2021/05/28 02:53:10;;;;;;;18.54;7.21;;;;;;;;;;353195;151;858936;-64
2021/05/28 02:54:11;;;;;;;12.80;6.30;;;;;;;;;;353205;150;857345;-64
2021/05/28 02:55:13;;;;;;;34.87;7.02;;;;;;;;;;355198;150;859596;-64
2021/05/28 02:56:15;;;;;;;32.77;7.61;;;;;;;;;;353617;150;859609;-65
2021/05/28 02:57:17;;;;;;;25.87;6.86;;;;;;;;;;353532;150;858400;-65
2021/05/28 02:58:19;;;;;;;21.16;6.54;;;;;;;;;;353538;150;864824;-65
2021/05/28 02:59:21;;;;;;;29.99;6.47;;;;;;;;;;355219;150;857260;-65
2021/05/28 03:00:23;;;;;;;18.92;6.52;;;;;;;;;;354243;150;866602;-65
2021/05/28 03:01:25;;;;;;;22.27;6.85;;;;;;;;;;356323;150;857330;-65
2021/05/28 03:02:26;;;;;;;32.79;6.82;;;;;;;;;;356435;150;858257;-64
2021/05/28 03:03:28;;;;;;;24.69;6.87;;;;;;;;;;353407;150;866417;-65
2021/05/28 03:04:30;;;;;;;33.24;7.45;;;;;;;;;;353023;151;857322;-65
2021/05/28 03:05:31;;;;;;;22.01;6.19;;;;;;;;;;354552;150;864746;-65
2021/05/28 03:06:33;;;;;;;9.69;6.29;;;;;;;;;;356504;150;857213;-65
2021/05/28 03:07:35;;;;;;;8.61;6.90;;;;;;;;;;353317;150;857357;-65
2021/05/28 03:08:37;;;;;;;6.19;5.59;;;;;;;;;;354336;148;857411;-65
2021/05/28 03:09:39;;;;;;;5.87;5.32;;;;;;;;;;353956;150;857391;-65
2021/05/28 03:10:42;;;;;;;6.17;5.58;;;;;;;;;;353286;150;865606;-65
2021/05/28 03:11:43;;;;;;;6.44;5.44;;;;;;;;;;352810;150;864997;-65
2021/05/28 03:12:45;;;;;;;6.93;5.53;;;;;;;;;;356856;150;865006;-65
2021/05/28 03:13:47;;;;;;;6.59;5.98;;;;;;;;;;354467;150;858965;-65
2021/05/28 03:14:49;;;;;;;7.13;5.51;;;;;;;;;;355626;150;858227;-65
2021/05/28 03:15:50;;;;;;;12.91;5.73;;;;;;;;;;355439;150;859036;-65
2021/05/28 03:16:52;;;;;;;8.48;5.23;;;;;;;;;;352720;150;865260;-64
2021/05/28 03:17:54;;;;;;;7.20;5.73;;;;;;;;;;356332;151;859246;-64
2021/05/28 03:19:01;;;;;;;6.02;5.35;;;;;;;;;;353482;150;865681;-65
2021/05/28 03:20:00;;;;;;;6.67;5.06;;;;;;;;;;354698;151;864873;-65
2021/05/28 03:21:22;;;;;;;5.48;4.98;;;;;;;;;;356436;150;859753;-65
2021/05/28 03:22:35;;;;;;;6.25;5.41;;;;;;;;;;353086;150;857846;-65
2021/05/28 03:23:37;;;;;;;6.57;5.90;;;;;;;;;;353151;150;859526;-64
2021/05/28 03:24:39;;;;;;;7.07;5.52;;;;;;;;;;352721;150;857396;-65
2021/05/28 03:25:42;;;;;;;6.26;5.69;;;;;;;;;;349903;154;860117;-65
2021/05/28 03:26:44;;;;;;;8.04;5.57;;;;;;;;;;354330;149;864764;-65
2021/05/28 03:27:48;;;;;;;6.36;5.80;;;;;;;;;;352970;150;857865;-65
2021/05/28 03:28:49;;;;;;;6.51;5.89;;;;;;;;;;354844;150;864793;-65
2021/05/28 03:29:50;;;;;;;6.76;5.65;;;;;;;;;;355182;150;858838;-65
2021/05/28 03:30:52;;;;;;;6.08;5.51;;;;;;;;;;354057;150;864864;-65
2021/05/28 03:31:54;;;;;;;5.88;5.31;;;;;;;;;;354878;151;859232;-65
2021/05/28 03:32:56;;;;;;;5.69;5.11;;;;;;;;;;354225;149;864950;-64
2021/05/28 03:33:57;;;;;;;5.29;4.79;;;;;;;;;;354671;150;865862;-64
2021/05/28 03:34:59;;;;;;;5.91;4.71;;;;;;;;;;356083;151;865878;-65
2021/05/28 03:36:01;;;;;;;6.06;5.46;;;;;;;;;;354475;150;858700;-65
2021/05/28 03:37:03;;;;;;;6.89;5.28;;;;;;;;;;352870;150;866134;-65
2021/05/28 03:38:05;;;;;;;6.35;5.76;;;;;;;;;;354556;151;859934;-65
2021/05/28 03:39:07;;;;;;;6.74;5.92;;;;;;;;;;352503;150;867642;-64
2021/05/28 03:40:09;;;;;;;6.25;5.65;;;;;;;;;;356695;150;859101;-65
2021/05/28 03:41:11;;;;;;;9.57;6.17;;;;;;;;;;353499;150;857979;-64
2021/05/28 03:42:13;;;;;;;9.43;5.64;;;;;;;;;;351940;151;857237;-65
2021/05/28 03:43:14;;;;;;;6.17;5.55;;;;;;;;;;353896;149;865852;-64
2021/05/28 03:44:16;;;;;;;6.49;4.98;;;;;;;;;;355036;150;865838;-64
2021/05/28 03:45:18;;;;;;;7.02;5.72;;;;;;;;;;353700;149;857213;-64
2021/05/28 03:46:21;;;;;;;6.64;5.00;;;;;;;;;;353771;151;866077;-65
2021/05/28 03:47:23;;;;;;;6.16;4.92;;;;;;;;;;353687;150;857109;-65
2021/05/28 03:53:46;;;;;;;5.79;5.07;;;;;;;18.28;70.19;99676.41;379041;139;882840;-64
2021/05/28 03:54:48;;;;;;;4.59;4.11;;;;;;;18.24;70.09;99685.33;370552;144;857195;-63
2021/05/28 03:55:50;;;;;;;4.23;3.83;;;;;;;18.28;69.92;99680.81;369850;143;857709;-63
2021/05/28 03:56:52;;;;;;;4.34;3.89;;;;;;;18.31;69.69;99678.90;374874;141;864800;-62
2021/05/28 03:57:54;;;;;;;5.53;4.14;;;;;;;18.36;69.54;99682.16;371315;141;857387;-64
2021/05/28 03:58:56;;;;;;;5.81;4.33;;;;;;;18.36;69.54;99682.16;371448;141;857836;-64
2021/05/28 03:59:58;;;;;;;6.03;4.36;;;;;;;18.49;69.32;99684.23;366928;144;857310;-63
2021/05/28 04:01:00;;;;;;;4.97;4.10;;;;;;;18.53;69.15;99683.17;367974;144;857403;-64
2021/05/28 04:02:02;;;;;;;4.77;4.29;;;;;;;18.56;68.95;99682.20;371711;143;857549;-63
2021/05/28 04:03:05;;;;;;;5.75;4.94;;;;;;;18.56;68.84;99683.06;375899;141;857401;-63
2021/05/28 04:04:06;;;;;;;5.77;4.74;;;;;;;18.55;68.85;99686.58;372865;141;857361;-64
2021/05/28 04:05:11;;;;;;;7.39;4.91;;;;;;;18.54;69.08;99685.73;364193;147;857497;-65
2021/05/28 04:06:14;;;;;;;5.41;4.93;;;;;;;18.53;69.03;99655.20;363428;145;858608;-63
2021/05/28 04:07:15;;;;;;;5.08;4.61;;;;;;;18.53;69.03;99655.20;371068;141;860508;-63
2021/05/28 04:08:17;;;;;;;5.87;5.31;;;;;;;18.55;68.97;99689.20;374321;141;858415;-63
2021/05/28 04:09:19;;;;;;;5.77;5.03;;;;;;;18.54;68.90;99683.12;357998;147;865591;-63
2021/05/28 04:10:23;;;;;;;6.07;4.97;;;;;;;18.56;69.02;99690.06;363788;144;857349;-63
2021/05/28 04:11:25;;;;;;;5.44;4.94;;;;;;;18.54;69.07;99688.36;369621;144;864943;-64
2021/05/28 04:12:27;;;;;;;6.68;5.26;;;;;;;;;;369949;144;858019;-63
2021/05/28 04:13:29;;;;;;;5.55;4.88;;;;;;;;;;367641;143;859151;-63
2021/05/28 04:14:31;;;;;;;6.09;5.09;;;;;;;;;;360175;146;857551;-62
2021/05/28 04:15:33;;;;;;;6.56;5.13;;;;;;;;;;360218;145;858520;-63
2021/05/28 04:16:35;;;;;;;5.25;4.66;;;;;;;;;;366506;145;864802;-63
2021/05/28 04:17:36;;;;;;;5.41;4.64;;;;;;;;;;369304;144;858553;-64
2021/05/28 04:18:38;;;;;;;5.01;4.51;;;;;;;;;;368891;143;857267;-64
2021/05/28 04:19:39;;;;;;;5.06;4.31;;;;;;;;;;368548;145;857389;-64
2021/05/28 04:20:44;;;;;;;6.60;4.40;;;;;;;;;;371894;144;866864;-64
2021/05/28 04:21:46;;;;;;;5.56;4.99;;;;;;;;;;369010;142;857209;-64
2021/05/28 04:22:47;;;;;;;4.96;4.54;;;;;;;;;;369134;145;857232;-64
2021/05/28 04:23:49;;;;;;;5.97;4.59;;;;;;;;;;365290;143;866634;-64
2021/05/28 04:24:51;;;;;;;6.41;4.55;;;;;;;;;;368536;144;866257;-63
2021/05/28 04:25:53;;;;;;;4.59;4.18;;;;;;;;;;365594;144;857392;-63
2021/05/28 04:26:54;;;;;;;6.44;4.43;;;;;;;;;;369677;143;867230;-63
2021/05/28 04:27:56;;;;;;;4.95;4.38;;;;;;;;;;367512;145;867055;-63
2021/05/28 04:28:57;;;;;;;4.86;4.29;;;;;;;;;;368014;144;865839;-63
2021/05/28 04:29:59;;;;;;;6.01;4.50;;;;;;;;;;369914;143;858254;-63
2021/05/28 04:31:01;;;;;;;5.84;4.13;;;;;;;;;;362214;148;859772;-63
2021/05/28 04:32:04;;;;;;;4.37;3.98;;;;;;;;;;369966;145;857809;-63
2021/05/28 04:33:05;;;;;;;4.91;4.08;;;;;;;;;;368712;143;867204;-64
2021/05/28 04:34:08;;;;;;;5.85;4.10;;;;;;;;;;363153;145;858685;-65
2021/05/28 04:35:10;;;;;;;5.40;3.79;;;;;;;;;;369560;144;858015;-65
2021/05/28 04:36:12;;;;;;;4.46;3.91;;;;;;;;;;365733;144;857484;-65
2021/05/28 04:37:14;;;;;;;4.85;3.98;;;;;;;;;;368626;145;866875;-65
2021/05/28 04:38:15;;;;;;;4.20;3.83;;;;;;;;;;367081;144;865002;-65
2021/05/28 04:39:17;;;;;;;4.87;3.96;;;;;;;;;;369035;143;857250;-63
2021/05/28 04:40:20;;;;;;;5.28;4.01;;;;;;;;;;367875;145;865686;-63
2021/05/28 04:41:22;;;;;;;4.09;3.72;;;;;;;;;;367938;144;857385;-63
2021/05/28 04:42:24;;;;;;;4.07;3.74;;;;;;;;;;370035;143;866603;-65
2021/05/28 04:43:25;;;;;;;4.94;4.23;;;;;;;;;;366338;144;865730;-63
2021/05/28 04:44:27;;;;;;;5.19;4.46;;;;;;;;;;366742;144;864932;-63
2021/05/28 04:45:28;;;;;;;4.96;4.13;;;;;;;;;;368557;143;866139;-63
2021/05/28 04:46:32;;;;;;;4.45;4.04;;;;;;;;;;366501;143;864911;-63
2021/05/28 04:47:34;;;;;;;8.42;4.43;;;;;;;;;;365751;144;857837;-63
2021/05/28 04:48:36;;;;;;;9.71;4.75;;;;;;;;;;369606;144;857323;-64
2021/05/28 04:49:37;;;;;;;5.66;4.19;;;;;;;;;;369791;143;857491;-63
2021/05/28 04:50:40;;;;;;;5.17;4.61;;;;;;;;;;368149;144;864895;-63
2021/05/28 04:51:42;;;;;;;6.68;4.72;;;;;;;;;;369960;145;858384;-63
2021/05/28 04:52:45;;;;;;;5.81;4.41;;;;;;;;;;368748;144;860919;-63
2021/05/28 04:53:47;;;;;;;5.54;4.76;;;;;;;;;;367895;145;857584;-63
2021/05/28 04:54:48;;;;;;;4.26;3.92;;;;;;;;;;369254;143;858886;-63
2021/05/28 04:55:50;;;;;;;6.64;4.13;;;;;;;;;;371364;142;865153;-63
2021/05/28 04:56:52;;;;;;;4.50;4.07;;;;;;;;;;367817;142;866315;-63
2021/05/28 04:57:54;;;;;;;5.07;4.57;;;;;;;;;;370401;145;866248;-63
2021/05/28 04:58:55;;;;;;;4.46;3.88;;;;;;;;;;369231;144;857781;-63
2021/05/28 04:59:57;;;;;;;5.64;4.16;;;;;;;;;;371087;145;864842;-63
2021/05/28 05:00:59;;;;;;;5.17;4.16;;;;;;;;;;370061;143;858926;-64
2021/05/28 05:02:01;;;;;;;7.87;4.51;;;;;;;;;;368622;144;866232;-63
2021/05/28 05:03:03;;;;;;;5.20;4.23;;;;;;;;;;370658;142;859948;-63
2021/05/28 05:04:05;;;;;;;7.00;4.07;;;;;;;;;;369131;144;858063;-64
2021/05/28 05:05:07;;;;;;;7.44;4.00;;;;;;;;;;368649;145;857557;-64
2021/05/28 05:06:11;;;;;;;4.42;3.98;;;;;;;;;;367558;145;867720;-63
2021/05/28 05:07:12;;;;;;;5.85;4.13;;;;;;;;;;368703;144;857922;-63
2021/05/28 05:08:14;;;;;;;5.87;4.29;;;;;;;;;;368777;145;857318;-63
2021/05/28 05:09:16;;;;;;;6.35;4.56;;;;;;;;;;371608;144;866678;-63
2021/05/28 05:10:19;;;;;;;4.52;3.99;;;;;;;;;;368662;142;858909;-63
2021/05/28 05:11:21;;;;;;;5.82;3.58;;;;;;;;;;368545;144;859843;-63
2021/05/28 05:12:22;;;;;;;7.15;4.21;;;;;;;;;;371196;143;865744;-65
2021/05/28 05:13:24;;;;;;;5.85;4.07;;;;;;;;;;363478;144;864827;-65
2021/05/28 05:14:26;;;;;;;6.41;3.87;;;;;;;;;;371702;143;857340;-64
2021/05/28 05:15:28;;;;;;;6.11;4.32;;;;;;;;;;369029;143;866279;-64
2021/05/28 05:16:30;;;;;;;4.58;4.14;;;;;;;;;;370562;142;863786;-64
2021/05/28 05:17:32;;;;;;;5.88;3.88;;;;;;;;;;371425;142;863819;-64
2021/05/28 05:18:33;;;;;;;4.70;4.09;;;;;;;;;;369360;143;857436;-64
2021/05/28 05:19:35;;;;;;;4.32;3.78;;;;;;;;;;366877;145;857340;-65
2021/05/28 05:20:38;;;;;;;6.04;4.01;;;;;;;;;;369447;143;857293;-63
2021/05/28 05:23:03;;;;;;;5.22;4.19;;;;;;;;;;382425;139;859087;-63
2021/05/28 05:24:06;;;;;;;5.65;3.92;;;;;;;;;;388447;136;857409;-63
2021/05/28 05:25:08;;;;;;;4.49;4.09;;;;;;;;;;386242;136;859911;-63
2021/05/28 05:26:10;;;;;;;4.37;3.97;;;;;;;;;;387640;136;858675;-63
2021/05/28 05:27:12;;;;;;;5.65;4.14;;;;;;;;;;380312;139;865679;-63
2021/05/28 05:28:14;;;;;;;4.95;4.05;;;;;;;;;;379927;139;859007;-63
2021/05/28 05:29:16;;;;;;;4.93;4.01;;;;;;;;;;378609;140;857349;-64
2021/05/28 05:30:20;;;;;;;4.37;3.68;;;;;;;;;;371354;142;857309;-63
2021/05/28 05:31:22;;;;;;;5.29;4.03;;;;;;;;;;378023;141;857315;-63
2021/05/28 05:32:23;;;;;;;5.08;4.61;;;;;;;;;;379760;140;857361;-63
2021/05/28 05:33:25;;;;;;;6.44;4.43;;;;;;;;;;370724;142;866459;-63
2021/05/28 05:34:27;;;;;;;5.88;4.42;;;;;;;;;;370978;144;859421;-63
2021/05/28 05:35:28;;;;;;;5.27;3.83;;;;;;;;;;369981;142;864998;-63
2021/05/28 05:36:33;;;;;;;7.87;4.46;;;;;;;;;;371629;142;864966;-63
2021/05/28 05:37:35;;;;;;;4.90;3.86;;;;;;;;;;370556;142;857306;-63
2021/05/28 05:38:36;;;;;;;5.60;4.05;;;;;;;;;;361379;146;865556;-61
2021/05/28 05:39:38;;;;;;;4.84;3.75;;;;;;;;;;370926;142;867258;-63
2021/05/28 05:40:40;;;;;;;5.93;4.16;;;;;;;;;;373984;142;864932;-62
2021/05/28 05:41:42;;;;;;;6.81;4.31;;;;;;;;;;368853;144;857307;-62
2021/05/28 05:42:43;;;;;;;4.95;4.15;;;;;;;;;;362137;148;857328;-63
2021/05/28 05:43:45;;;;;;;5.64;4.01;;;;;;;;;;369824;142;866376;-63
2021/05/28 05:44:47;;;;;;;5.36;4.37;;;;;;;;;;370691;144;859108;-63
2021/05/28 05:45:48;;;;;;;5.62;4.51;;;;;;;;;;365149;147;859246;-62
2021/05/28 05:46:51;;;;;;;6.09;4.54;;;;;;;;;;363644;145;857254;-63
2021/05/28 05:47:53;;;;;;;6.56;4.72;;;;;;;;;;358055;149;864917;-64
2021/05/28 05:48:54;;;;;;;5.59;4.52;;;;;;;;;;373074;143;857791;-62
2021/05/28 05:49:56;;;;;;;7.01;4.35;;;;;;;;;;379488;140;857391;-63
2021/05/28 05:50:58;;;;;;;6.14;4.57;;;;;;;;;;378870;139;857250;-63
2021/05/28 05:52:00;;;;;;;5.48;4.61;;;;;;;;;;372862;142;865318;-64
2021/05/28 05:53:02;;;;;;;6.02;4.35;;;;;;;;;;372078;139;864957;-62
2021/05/28 05:54:04;;;;;;;5.45;4.46;;;;;;;;;;380753;139;866685;-63
2021/05/28 05:55:07;;;;;;;6.05;4.07;;;;;;;;;;380293;139;857464;-63
2021/05/28 05:56:09;;;;;;;5.23;4.70;;;;;;;;;;379757;139;857377;-64
2021/05/28 05:57:10;;;;;;;4.54;4.00;;;;;;;;;;372933;142;865670;-63
2021/05/28 05:58:12;;;;;;;5.77;4.37;;;;;;;;;;373792;142;857385;-61
2021/05/28 05:59:14;;;;;;;5.87;4.24;;;;;;;;;;364899;145;859754;-62
2021/05/28 06:00:18;;;;;;;6.78;3.98;;;;;;;;;;362641;146;857710;-62
2021/05/28 06:01:19;;;;;;;4.62;4.11;;;;;;;;;;368616;143;866153;-63
2021/05/28 06:02:21;;;;;;;3.99;3.69;;;;;;;;;;371330;143;858284;-63
2021/05/28 06:03:23;;;;;;;5.07;3.44;;;;;;;;;;371692;143;864924;-62
2021/05/28 06:04:24;;;;;;;4.91;3.57;;;;;;;;;;371654;143;864733;-64
2021/05/28 06:05:26;;;;;;;4.11;3.35;;;;;;;;;;372058;142;866344;-64
2021/05/28 06:06:29;;;;;;;5.84;3.61;;;;;;;;;;364328;145;865810;-63
2021/05/28 06:07:30;;;;;;;4.80;3.64;;;;;;;;;;367615;145;860037;-64